sensor_id;sensor_type;location;lat;lon;timestamp;P1;durP1;ratioP1;P2;durP2;ratioP2
60869;SDS011;46710;43.680;4.132;2022-08-23T00:01:41;0.70;;;0.70;;
60869;SDS011;46710;43.680;4.132;2022-08-23T00:04:10;0.70;;;0.70;;
60869;SDS011;46710;43.680;4.132;2022-08-23T00:06:36;0.77;;;0.77;;
60869;SDS011;46710;43.680;4.132;2022-08-23T00:09:03;0.70;;;0.70;;
60869;SDS011;46710;43.680;4.132;2022-08-23T00:13:55;0.70;;;0.70;;
60869;SDS011;46710;43.680;4.132;2022-08-23T00:16:22;0.62;;;0.62;;
60869;SDS011;46710;43.680;4.132;2022-08-23T00:18:49;0.90;;;0.65;;
60869;SDS011;46710;43.680;4.132;2022-08-23T00:21:15;0.60;;;0.60;;
60869;SDS011;46710;43.680;4.132;2022-08-23T00:23:41;1.58;;;0.70;;
60869;SDS011;46710;43.680;4.132;2022-08-23T00:26:07;0.62;;;0.60;;
60869;SDS011;46710;43.680;4.132;2022-08-23T00:28:33;0.70;;;0.70;;
60869;SDS011;46710;43.680;4.132;2022-08-23T00:30:59;0.80;;;0.80;;
60869;SDS011;46710;43.680;4.132;2022-08-23T00:33:26;1.00;;;0.80;;
60869;SDS011;46710;43.680;4.132;2022-08-23T00:35:52;2.25;;;0.80;;
60869;SDS011;46710;43.680;4.132;2022-08-23T00:38:18;1.05;;;0.70;;
60869;SDS011;46710;43.680;4.132;2022-08-23T00:40:46;1.17;;;1.00;;
60869;SDS011;46710;43.680;4.132;2022-08-23T00:43:13;1.12;;;0.75;;
60869;SDS011;46710;43.680;4.132;2022-08-23T00:46:02;0.70;;;0.70;;
60869;SDS011;46710;43.680;4.132;2022-08-23T00:48:49;0.70;;;0.60;;
60869;SDS011;46710;43.680;4.132;2022-08-23T00:51:18;0.70;;;0.70;;
60869;SDS011;46710;43.680;4.132;2022-08-23T00:53:47;2.05;;;0.73;;
60869;SDS011;46710;43.680;4.132;2022-08-23T00:56:15;0.60;;;0.60;;
60869;SDS011;46710;43.680;4.132;2022-08-23T00:58:41;0.80;;;0.70;;
60869;SDS011;46710;43.680;4.132;2022-08-23T01:01:10;1.08;;;0.60;;
60869;SDS011;46710;43.680;4.132;2022-08-23T01:03:37;0.82;;;0.65;;
60869;SDS011;46710;43.680;4.132;2022-08-23T01:06:25;2.17;;;0.80;;
60869;SDS011;46710;43.680;4.132;2022-08-23T01:08:53;0.73;;;0.65;;
60869;SDS011;46710;43.680;4.132;2022-08-23T01:11:23;0.60;;;0.60;;
60869;SDS011;46710;43.680;4.132;2022-08-23T01:14:08;0.70;;;0.60;;
60869;SDS011;46710;43.680;4.132;2022-08-23T01:16:38;0.70;;;0.70;;
60869;SDS011;46710;43.680;4.132;2022-08-23T01:19:11;0.82;;;0.82;;
60869;SDS011;46710;43.680;4.132;2022-08-23T01:21:39;0.80;;;0.80;;
60869;SDS011;46710;43.680;4.132;2022-08-23T01:24:08;0.80;;;0.80;;
60869;SDS011;46710;43.680;4.132;2022-08-23T01:26:34;0.70;;;0.70;;
60869;SDS011;46710;43.680;4.132;2022-08-23T01:29:03;0.77;;;0.77;;
60869;SDS011;46710;43.680;4.132;2022-08-23T01:31:29;1.40;;;0.90;;
60869;SDS011;46710;43.680;4.132;2022-08-23T01:34:00;0.70;;;0.70;;
60869;SDS011;46710;43.680;4.132;2022-08-23T01:38:53;2.33;;;0.62;;
60869;SDS011;46710;43.680;4.132;2022-08-23T01:41:19;0.85;;;0.77;;
60869;SDS011;46710;43.680;4.132;2022-08-23T01:43:46;0.60;;;0.60;;
60869;SDS011;46710;43.680;4.132;2022-08-23T01:46:13;1.30;;;0.90;;
60869;SDS011;46710;43.680;4.132;2022-08-23T01:48:42;0.80;;;0.70;;
60869;SDS011;46710;43.680;4.132;2022-08-23T01:51:09;2.92;;;0.80;;
60869;SDS011;46710;43.680;4.132;2022-08-23T01:53:35;0.73;;;0.70;;
60869;SDS011;46710;43.680;4.132;2022-08-23T01:56:01;2.20;;;0.80;;
60869;SDS011;46710;43.680;4.132;2022-08-23T01:58:30;1.37;;;0.60;;
60869;SDS011;46710;43.680;4.132;2022-08-23T02:00:56;2.97;;;1.10;;
60869;SDS011;46710;43.680;4.132;2022-08-23T02:03:22;0.85;;;0.70;;
60869;SDS011;46710;43.680;4.132;2022-08-23T02:05:48;1.05;;;0.75;;
60869;SDS011;46710;43.680;4.132;2022-08-23T02:08:14;1.15;;;0.75;;
60869;SDS011;46710;43.680;4.132;2022-08-23T02:10:59;0.70;;;0.70;;
60869;SDS011;46710;43.680;4.132;2022-08-23T02:13:25;1.15;;;0.70;;
60869;SDS011;46710;43.680;4.132;2022-08-23T02:15:51;0.70;;;0.70;;
60869;SDS011;46710;43.680;4.132;2022-08-23T02:18:19;1.80;;;0.80;;
60869;SDS011;46710;43.680;4.132;2022-08-23T02:20:46;0.77;;;0.70;;
60869;SDS011;46710;43.680;4.132;2022-08-23T02:23:13;1.17;;;0.70;;
60869;SDS011;46710;43.680;4.132;2022-08-23T02:25:40;0.70;;;0.70;;
60869;SDS011;46710;43.680;4.132;2022-08-23T02:28:07;0.70;;;0.70;;
60869;SDS011;46710;43.680;4.132;2022-08-23T02:30:34;2.67;;;0.85;;
60869;SDS011;46710;43.680;4.132;2022-08-23T02:33:00;0.47;;;0.47;;
60869;SDS011;46710;43.680;4.132;2022-08-23T02:35:26;0.62;;;0.62;;
60869;SDS011;46710;43.680;4.132;2022-08-23T02:37:52;1.67;;;0.75;;
60869;SDS011;46710;43.680;4.132;2022-08-23T02:40:19;0.70;;;0.70;;
60869;SDS011;46710;43.680;4.132;2022-08-23T02:42:46;0.60;;;0.60;;
60869;SDS011;46710;43.680;4.132;2022-08-23T02:45:13;0.95;;;0.70;;
60869;SDS011;46710;43.680;4.132;2022-08-23T02:47:41;0.73;;;0.73;;
60869;SDS011;46710;43.680;4.132;2022-08-23T02:50:07;0.70;;;0.50;;
60869;SDS011;46710;43.680;4.132;2022-08-23T02:52:34;0.50;;;0.50;;
60869;SDS011;46710;43.680;4.132;2022-08-23T02:55:00;0.60;;;0.60;;
60869;SDS011;46710;43.680;4.132;2022-08-23T02:57:26;0.70;;;0.70;;
60869;SDS011;46710;43.680;4.132;2022-08-23T02:59:52;0.62;;;0.62;;
60869;SDS011;46710;43.680;4.132;2022-08-23T03:02:18;0.62;;;0.62;;
60869;SDS011;46710;43.680;4.132;2022-08-23T03:04:44;0.90;;;0.60;;
60869;SDS011;46710;43.680;4.132;2022-08-23T03:07:11;1.00;;;0.75;;
60869;SDS011;46710;43.680;4.132;2022-08-23T03:09:37;0.70;;;0.70;;
60869;SDS011;46710;43.680;4.132;2022-08-23T03:12:03;0.60;;;0.60;;
60869;SDS011;46710;43.680;4.132;2022-08-23T03:14:30;0.73;;;0.60;;
60869;SDS011;46710;43.680;4.132;2022-08-23T03:16:56;0.70;;;0.70;;
60869;SDS011;46710;43.680;4.132;2022-08-23T03:19:22;1.52;;;0.77;;
60869;SDS011;46710;43.680;4.132;2022-08-23T03:21:48;0.50;;;0.50;;
60869;SDS011;46710;43.680;4.132;2022-08-23T03:24:14;0.52;;;0.52;;
60869;SDS011;46710;43.680;4.132;2022-08-23T03:26:41;0.45;;;0.45;;
60869;SDS011;46710;43.680;4.132;2022-08-23T03:29:08;0.50;;;0.50;;
60869;SDS011;46710;43.680;4.132;2022-08-23T03:31:34;0.55;;;0.55;;
60869;SDS011;46710;43.680;4.132;2022-08-23T03:34:00;0.60;;;0.60;;
60869;SDS011;46710;43.680;4.132;2022-08-23T03:36:26;0.77;;;0.70;;
60869;SDS011;46710;43.680;4.132;2022-08-23T03:38:53;0.70;;;0.70;;
60869;SDS011;46710;43.680;4.132;2022-08-23T03:41:19;0.80;;;0.60;;
60869;SDS011;46710;43.680;4.132;2022-08-23T03:43:45;0.68;;;0.68;;
60869;SDS011;46710;43.680;4.132;2022-08-23T03:46:11;0.90;;;0.70;;
60869;SDS011;46710;43.680;4.132;2022-08-23T03:48:48;1.05;;;0.60;;
60869;SDS011;46710;43.680;4.132;2022-08-23T03:51:15;0.60;;;0.60;;
60869;SDS011;46710;43.680;4.132;2022-08-23T03:53:41;0.77;;;0.70;;
60869;SDS011;46710;43.680;4.132;2022-08-23T03:56:09;1.40;;;0.70;;
60869;SDS011;46710;43.680;4.132;2022-08-23T03:58:35;0.60;;;0.60;;
60869;SDS011;46710;43.680;4.132;2022-08-23T04:01:01;0.70;;;0.70;;
60869;SDS011;46710;43.680;4.132;2022-08-23T04:03:27;0.80;;;0.80;;
60869;SDS011;46710;43.680;4.132;2022-08-23T04:05:53;1.65;;;0.52;;
60869;SDS011;46710;43.680;4.132;2022-08-23T04:08:19;0.70;;;0.70;;
60869;SDS011;46710;43.680;4.132;2022-08-23T04:10:47;0.62;;;0.62;;
60869;SDS011;46710;43.680;4.132;2022-08-23T04:13:13;0.62;;;0.60;;
60869;SDS011;46710;43.680;4.132;2022-08-23T04:15:39;0.60;;;0.60;;
60869;SDS011;46710;43.680;4.132;2022-08-23T04:18:05;0.62;;;0.62;;
60869;SDS011;46710;43.680;4.132;2022-08-23T04:20:31;0.68;;;0.68;;
60869;SDS011;46710;43.680;4.132;2022-08-23T04:22:58;0.60;;;0.60;;
60869;SDS011;46710;43.680;4.132;2022-08-23T04:25:24;1.27;;;0.80;;
60869;SDS011;46710;43.680;4.132;2022-08-23T04:27:51;0.75;;;0.60;;
60869;SDS011;46710;43.680;4.132;2022-08-23T04:30:17;0.60;;;0.60;;
60869;SDS011;46710;43.680;4.132;2022-08-23T04:32:44;2.58;;;0.82;;
60869;SDS011;46710;43.680;4.132;2022-08-23T04:35:11;0.60;;;0.60;;
60869;SDS011;46710;43.680;4.132;2022-08-23T04:37:37;0.68;;;0.68;;
60869;SDS011;46710;43.680;4.132;2022-08-23T04:40:03;0.70;;;0.70;;
60869;SDS011;46710;43.680;4.132;2022-08-23T04:42:48;0.57;;;0.57;;
60869;SDS011;46710;43.680;4.132;2022-08-23T04:45:14;1.25;;;0.68;;
60869;SDS011;46710;43.680;4.132;2022-08-23T04:47:40;0.80;;;0.62;;
60869;SDS011;46710;43.680;4.132;2022-08-23T04:50:09;0.55;;;0.55;;
60869;SDS011;46710;43.680;4.132;2022-08-23T04:52:35;1.30;;;0.70;;
60869;SDS011;46710;43.680;4.132;2022-08-23T04:55:01;0.90;;;0.57;;
60869;SDS011;46710;43.680;4.132;2022-08-23T04:57:27;0.50;;;0.50;;
60869;SDS011;46710;43.680;4.132;2022-08-23T04:59:53;0.80;;;0.80;;
60869;SDS011;46710;43.680;4.132;2022-08-23T05:02:19;0.50;;;0.50;;
60869;SDS011;46710;43.680;4.132;2022-08-23T05:04:45;0.50;;;0.50;;
60869;SDS011;46710;43.680;4.132;2022-08-23T05:07:11;0.60;;;0.60;;
60869;SDS011;46710;43.680;4.132;2022-08-23T05:09:39;1.55;;;0.70;;
60869;SDS011;46710;43.680;4.132;2022-08-23T05:12:05;0.43;;;0.43;;
60869;SDS011;46710;43.680;4.132;2022-08-23T05:14:31;0.50;;;0.50;;
60869;SDS011;46710;43.680;4.132;2022-08-23T05:16:58;1.80;;;0.55;;
60869;SDS011;46710;43.680;4.132;2022-08-23T05:19:24;0.50;;;0.50;;
60869;SDS011;46710;43.680;4.132;2022-08-23T05:21:50;0.68;;;0.68;;
60869;SDS011;46710;43.680;4.132;2022-08-23T05:24:16;0.85;;;0.68;;
60869;SDS011;46710;43.680;4.132;2022-08-23T05:26:42;0.73;;;0.60;;
60869;SDS011;46710;43.680;4.132;2022-08-23T05:29:08;0.80;;;0.80;;
60869;SDS011;46710;43.680;4.132;2022-08-23T05:31:34;1.80;;;0.80;;
60869;SDS011;46710;43.680;4.132;2022-08-23T05:34:00;2.92;;;0.77;;
60869;SDS011;46710;43.680;4.132;2022-08-23T05:36:26;1.50;;;0.70;;
60869;SDS011;46710;43.680;4.132;2022-08-23T05:38:52;1.00;;;0.80;;
60869;SDS011;46710;43.680;4.132;2022-08-23T05:41:19;1.62;;;0.70;;
60869;SDS011;46710;43.680;4.132;2022-08-23T05:43:45;1.23;;;0.62;;
60869;SDS011;46710;43.680;4.132;2022-08-23T05:46:13;0.60;;;0.60;;
60869;SDS011;46710;43.680;4.132;2022-08-23T05:48:40;0.62;;;0.62;;
60869;SDS011;46710;43.680;4.132;2022-08-23T05:51:15;0.60;;;0.60;;
60869;SDS011;46710;43.680;4.132;2022-08-23T05:53:42;3.40;;;0.60;;
60869;SDS011;46710;43.680;4.132;2022-08-23T05:56:09;0.88;;;0.85;;
60869;SDS011;46710;43.680;4.132;2022-08-23T05:58:36;3.72;;;1.00;;
60869;SDS011;46710;43.680;4.132;2022-08-23T06:01:02;2.22;;;0.70;;
60869;SDS011;46710;43.680;4.132;2022-08-23T06:03:28;0.60;;;0.60;;
60869;SDS011;46710;43.680;4.132;2022-08-23T06:05:58;0.95;;;0.80;;
60869;SDS011;46710;43.680;4.132;2022-08-23T06:08:25;3.17;;;0.80;;
60869;SDS011;46710;43.680;4.132;2022-08-23T06:13:27;2.50;;;0.90;;
60869;SDS011;46710;43.680;4.132;2022-08-23T06:15:54;1.30;;;0.85;;
60869;SDS011;46710;43.680;4.132;2022-08-23T06:18:21;1.45;;;0.85;;
60869;SDS011;46710;43.680;4.132;2022-08-23T06:20:47;1.05;;;0.52;;
60869;SDS011;46710;43.680;4.132;2022-08-23T06:23:13;1.15;;;0.80;;
60869;SDS011;46710;43.680;4.132;2022-08-23T06:25:39;1.10;;;0.60;;
60869;SDS011;46710;43.680;4.132;2022-08-23T06:28:05;0.55;;;0.55;;
60869;SDS011;46710;43.680;4.132;2022-08-23T06:30:31;5.57;;;2.92;;
60869;SDS011;46710;43.680;4.132;2022-08-23T06:32:57;34.67;;;30.40;;
60869;SDS011;46710;43.680;4.132;2022-08-23T06:35:23;53.33;;;45.08;;
60869;SDS011;46710;43.680;4.132;2022-08-23T06:37:50;80.12;;;64.78;;
60869;SDS011;46710;43.680;4.132;2022-08-23T06:40:16;53.28;;;38.33;;
60869;SDS011;46710;43.680;4.132;2022-08-23T06:42:42;29.33;;;23.60;;
60869;SDS011;46710;43.680;4.132;2022-08-23T06:45:08;7.00;;;5.75;;
60869;SDS011;46710;43.680;4.132;2022-08-23T06:47:35;1.75;;;1.62;;
60869;SDS011;46710;43.680;4.132;2022-08-23T06:50:01;1.23;;;0.90;;
60869;SDS011;46710;43.680;4.132;2022-08-23T06:52:27;0.85;;;0.60;;
60869;SDS011;46710;43.680;4.132;2022-08-23T06:54:53;0.60;;;0.60;;
60869;SDS011;46710;43.680;4.132;2022-08-23T06:57:20;0.90;;;0.52;;
60869;SDS011;46710;43.680;4.132;2022-08-23T06:59:47;0.60;;;0.60;;
60869;SDS011;46710;43.680;4.132;2022-08-23T07:02:13;0.50;;;0.50;;
60869;SDS011;46710;43.680;4.132;2022-08-23T07:04:40;0.90;;;0.62;;
60869;SDS011;46710;43.680;4.132;2022-08-23T07:07:06;0.60;;;0.60;;
60869;SDS011;46710;43.680;4.132;2022-08-23T07:09:33;1.08;;;0.80;;
60869;SDS011;46710;43.680;4.132;2022-08-23T07:11:59;1.20;;;0.77;;
60869;SDS011;46710;43.680;4.132;2022-08-23T07:14:26;1.05;;;0.57;;
60869;SDS011;46710;43.680;4.132;2022-08-23T07:16:54;0.60;;;0.60;;
60869;SDS011;46710;43.680;4.132;2022-08-23T07:19:21;3.37;;;0.68;;
60869;SDS011;46710;43.680;4.132;2022-08-23T07:21:48;1.00;;;0.65;;
60869;SDS011;46710;43.680;4.132;2022-08-23T07:24:15;1.23;;;0.60;;
60869;SDS011;46710;43.680;4.132;2022-08-23T07:26:41;0.60;;;0.52;;
60869;SDS011;46710;43.680;4.132;2022-08-23T07:29:09;1.60;;;0.60;;
60869;SDS011;46710;43.680;4.132;2022-08-23T07:31:40;1.83;;;0.60;;
60869;SDS011;46710;43.680;4.132;2022-08-23T07:34:06;3.12;;;0.75;;
60869;SDS011;46710;43.680;4.132;2022-08-23T07:36:32;1.35;;;0.60;;
60869;SDS011;46710;43.680;4.132;2022-08-23T07:38:59;0.50;;;0.50;;
60869;SDS011;46710;43.680;4.132;2022-08-23T07:41:26;1.30;;;0.70;;
60869;SDS011;46710;43.680;4.132;2022-08-23T07:43:56;2.67;;;1.52;;
60869;SDS011;46710;43.680;4.132;2022-08-23T07:46:24;1.67;;;0.60;;
60869;SDS011;46710;43.680;4.132;2022-08-23T07:48:51;2.78;;;0.60;;
60869;SDS011;46710;43.680;4.132;2022-08-23T07:51:17;0.93;;;0.50;;
60869;SDS011;46710;43.680;4.132;2022-08-23T07:53:43;0.70;;;0.60;;
60869;SDS011;46710;43.680;4.132;2022-08-23T07:56:10;1.27;;;0.65;;
60869;SDS011;46710;43.680;4.132;2022-08-23T07:58:37;2.72;;;0.55;;
60869;SDS011;46710;43.680;4.132;2022-08-23T08:01:07;0.65;;;0.65;;
60869;SDS011;46710;43.680;4.132;2022-08-23T08:03:36;0.60;;;0.60;;
60869;SDS011;46710;43.680;4.132;2022-08-23T08:06:05;1.17;;;0.60;;
60869;SDS011;46710;43.680;4.132;2022-08-23T08:08:32;1.48;;;0.77;;
60869;SDS011;46710;43.680;4.132;2022-08-23T08:10:58;1.37;;;0.80;;
60869;SDS011;46710;43.680;4.132;2022-08-23T08:13:24;0.45;;;0.45;;
60869;SDS011;46710;43.680;4.132;2022-08-23T08:15:50;1.90;;;0.80;;
60869;SDS011;46710;43.680;4.132;2022-08-23T08:18:16;0.80;;;0.80;;
60869;SDS011;46710;43.680;4.132;2022-08-23T08:20:43;1.42;;;0.80;;
60869;SDS011;46710;43.680;4.132;2022-08-23T08:23:09;1.92;;;1.00;;
60869;SDS011;46710;43.680;4.132;2022-08-23T08:25:35;1.52;;;1.17;;
60869;SDS011;46710;43.680;4.132;2022-08-23T08:28:01;1.15;;;1.00;;
60869;SDS011;46710;43.680;4.132;2022-08-23T08:30:27;2.85;;;0.80;;
60869;SDS011;46710;43.680;4.132;2022-08-23T08:32:53;1.08;;;0.95;;
60869;SDS011;46710;43.680;4.132;2022-08-23T08:35:20;1.70;;;0.90;;
60869;SDS011;46710;43.680;4.132;2022-08-23T08:37:46;1.10;;;0.93;;
60869;SDS011;46710;43.680;4.132;2022-08-23T08:40:12;1.67;;;1.10;;
60869;SDS011;46710;43.680;4.132;2022-08-23T08:42:43;2.55;;;1.00;;
60869;SDS011;46710;43.680;4.132;2022-08-23T08:45:14;2.40;;;1.10;;
60869;SDS011;46710;43.680;4.132;2022-08-23T08:47:47;3.72;;;1.30;;
60869;SDS011;46710;43.680;4.132;2022-08-23T08:50:17;1.23;;;1.10;;
60869;SDS011;46710;43.680;4.132;2022-08-23T08:52:45;2.87;;;1.20;;
60869;SDS011;46710;43.680;4.132;2022-08-23T08:55:23;1.60;;;1.20;;
60869;SDS011;46710;43.680;4.132;2022-08-23T08:57:50;2.60;;;1.20;;
60869;SDS011;46710;43.680;4.132;2022-08-23T09:00:23;1.87;;;1.37;;
60869;SDS011;46710;43.680;4.132;2022-08-23T09:02:50;1.52;;;1.12;;
60869;SDS011;46710;43.680;4.132;2022-08-23T09:05:17;2.17;;;1.30;;
60869;SDS011;46710;43.680;4.132;2022-08-23T09:10:19;2.22;;;1.35;;
60869;SDS011;46710;43.680;4.132;2022-08-23T09:12:53;2.05;;;1.10;;
60869;SDS011;46710;43.680;4.132;2022-08-23T09:17:57;4.50;;;1.50;;
60869;SDS011;46710;43.680;4.132;2022-08-23T09:20:25;2.00;;;1.35;;
60869;SDS011;46710;43.680;4.132;2022-08-23T09:23:14;1.50;;;1.40;;
60869;SDS011;46710;43.680;4.132;2022-08-23T09:25:50;3.28;;;1.45;;
60869;SDS011;46710;43.680;4.132;2022-08-23T09:28:16;3.03;;;1.52;;
60869;SDS011;46710;43.680;4.132;2022-08-23T09:35:40;3.75;;;1.48;;
60869;SDS011;46710;43.680;4.132;2022-08-23T09:38:17;2.47;;;1.55;;
60869;SDS011;46710;43.680;4.132;2022-08-23T09:40:45;1.67;;;1.58;;
60869;SDS011;46710;43.680;4.132;2022-08-23T09:43:19;3.53;;;1.40;;
60869;SDS011;46710;43.680;4.132;2022-08-23T09:48:12;2.50;;;1.50;;
60869;SDS011;46710;43.680;4.132;2022-08-23T09:50:49;2.22;;;1.50;;
60869;SDS011;46710;43.680;4.132;2022-08-23T09:53:22;4.30;;;1.58;;
60869;SDS011;46710;43.680;4.132;2022-08-23T09:58:22;3.92;;;1.70;;
60869;SDS011;46710;43.680;4.132;2022-08-23T10:03:37;3.70;;;1.48;;
60869;SDS011;46710;43.680;4.132;2022-08-23T10:06:04;3.17;;;1.80;;
60869;SDS011;46710;43.680;4.132;2022-08-23T10:08:36;3.80;;;1.90;;
60869;SDS011;46710;43.680;4.132;2022-08-23T10:11:19;4.62;;;2.00;;
60869;SDS011;46710;43.680;4.132;2022-08-23T10:13:48;1.90;;;1.42;;
60869;SDS011;46710;43.680;4.132;2022-08-23T10:16:28;2.87;;;1.52;;
60869;SDS011;46710;43.680;4.132;2022-08-23T10:19:09;4.20;;;1.98;;
60869;SDS011;46710;43.680;4.132;2022-08-23T10:24:21;16.23;;;10.25;;
60869;SDS011;46710;43.680;4.132;2022-08-23T10:27:06;8.15;;;5.85;;
60869;SDS011;46710;43.680;4.132;2022-08-23T10:29:56;3.78;;;2.80;;
60869;SDS011;46710;43.680;4.132;2022-08-23T10:35:27;3.42;;;1.95;;
60869;SDS011;46710;43.680;4.132;2022-08-23T10:43:03;3.03;;;1.80;;
60869;SDS011;46710;43.680;4.132;2022-08-23T10:45:36;3.53;;;1.87;;
60869;SDS011;46710;43.680;4.132;2022-08-23T10:48:25;2.22;;;1.55;;
60869;SDS011;46710;43.680;4.132;2022-08-23T10:50:57;2.75;;;1.60;;
60869;SDS011;46710;43.680;4.132;2022-08-23T10:53:28;1.80;;;1.70;;
60869;SDS011;46710;43.680;4.132;2022-08-23T10:55:56;2.90;;;1.70;;
60869;SDS011;46710;43.680;4.132;2022-08-23T10:58:29;9.18;;;2.62;;
60869;SDS011;46710;43.680;4.132;2022-08-23T11:00:56;2.58;;;1.80;;
60869;SDS011;46710;43.680;4.132;2022-08-23T11:08:56;16.58;;;13.95;;
60869;SDS011;46710;43.680;4.132;2022-08-23T11:11:36;2.87;;;2.58;;
60869;SDS011;46710;43.680;4.132;2022-08-23T11:14:03;2.65;;;2.00;;
60869;SDS011;46710;43.680;4.132;2022-08-23T11:16:30;4.22;;;1.62;;
60869;SDS011;46710;43.680;4.132;2022-08-23T11:18:57;2.58;;;1.80;;
60869;SDS011;46710;43.680;4.132;2022-08-23T11:23:50;2.70;;;1.73;;
60869;SDS011;46710;43.680;4.132;2022-08-23T11:28:49;2.85;;;1.70;;
60869;SDS011;46710;43.680;4.132;2022-08-23T11:32:18;4.28;;;1.48;;
60869;SDS011;46710;43.680;4.132;2022-08-23T11:36:44;1.75;;;1.48;;
60869;SDS011;46710;43.680;4.132;2022-08-23T11:39:29;4.82;;;1.95;;
60869;SDS011;46710;43.680;4.132;2022-08-23T11:42:17;1.87;;;1.52;;
60869;SDS011;46710;43.680;4.132;2022-08-23T11:44:46;2.80;;;1.65;;
60869;SDS011;46710;43.680;4.132;2022-08-23T11:47:12;4.00;;;1.80;;
60869;SDS011;46710;43.680;4.132;2022-08-23T12:18:37;2.55;;;1.73;;
60869;SDS011;46710;43.680;4.132;2022-08-23T12:21:05;1.62;;;1.50;;
60869;SDS011;46710;43.680;4.132;2022-08-23T12:23:46;4.05;;;1.60;;
60869;SDS011;46710;43.680;4.132;2022-08-23T12:26:33;1.60;;;1.48;;
60869;SDS011;46710;43.680;4.132;2022-08-23T12:31:49;2.83;;;1.60;;
60869;SDS011;46710;43.680;4.132;2022-08-23T12:34:20;11.73;;;7.78;;
60869;SDS011;46710;43.680;4.132;2022-08-23T12:41:51;2.87;;;2.17;;
60869;SDS011;46710;43.680;4.132;2022-08-23T12:44:19;4.37;;;2.40;;
60869;SDS011;46710;43.680;4.132;2022-08-23T12:46:46;4.03;;;1.42;;
60869;SDS011;46710;43.680;4.132;2022-08-23T12:51:52;3.45;;;1.60;;
60869;SDS011;46710;43.680;4.132;2022-08-23T12:54:20;2.10;;;1.60;;
60869;SDS011;46710;43.680;4.132;2022-08-23T12:56:47;2.45;;;1.60;;
60869;SDS011;46710;43.680;4.132;2022-08-23T13:02:54;3.62;;;1.80;;
60869;SDS011;46710;43.680;4.132;2022-08-23T13:05:07;1.62;;;1.50;;
60869;SDS011;46710;43.680;4.132;2022-08-23T13:07:35;2.08;;;1.40;;
60869;SDS011;46710;43.680;4.132;2022-08-23T13:10:02;2.00;;;1.55;;
60869;SDS011;46710;43.680;4.132;2022-08-23T13:12:29;3.45;;;1.75;;
60869;SDS011;46710;43.680;4.132;2022-08-23T13:14:55;2.62;;;1.70;;
60869;SDS011;46710;43.680;4.132;2022-08-23T13:20:36;2.58;;;1.65;;
60869;SDS011;46710;43.680;4.132;2022-08-23T13:22:53;2.08;;;1.35;;
60869;SDS011;46710;43.680;4.132;2022-08-23T13:25:24;2.42;;;1.50;;
60869;SDS011;46710;43.680;4.132;2022-08-23T13:27:52;1.40;;;1.30;;
60869;SDS011;46710;43.680;4.132;2022-08-23T13:30:23;2.00;;;1.60;;
60869;SDS011;46710;43.680;4.132;2022-08-23T13:32:50;3.07;;;1.40;;
60869;SDS011;46710;43.680;4.132;2022-08-23T13:35:36;1.92;;;1.45;;
60869;SDS011;46710;43.680;4.132;2022-08-23T13:38:13;1.60;;;1.48;;
60869;SDS011;46710;43.680;4.132;2022-08-23T13:43:07;1.42;;;1.33;;
60869;SDS011;46710;43.680;4.132;2022-08-23T13:45:36;2.25;;;1.58;;
60869;SDS011;46710;43.680;4.132;2022-08-23T13:48:15;1.87;;;1.50;;
60869;SDS011;46710;43.680;4.132;2022-08-23T13:50:43;1.50;;;1.40;;
60869;SDS011;46710;43.680;4.132;2022-08-23T13:53:09;2.47;;;1.50;;
60869;SDS011;46710;43.680;4.132;2022-08-23T13:55:51;4.78;;;1.60;;
60869;SDS011;46710;43.680;4.132;2022-08-23T13:58:29;1.33;;;1.23;;
60869;SDS011;46710;43.680;4.132;2022-08-23T14:00:57;1.98;;;1.48;;
60869;SDS011;46710;43.680;4.132;2022-08-23T14:03:23;1.60;;;1.37;;
60869;SDS011;46710;43.680;4.132;2022-08-23T14:05:50;1.87;;;1.30;;
60869;SDS011;46710;43.680;4.132;2022-08-23T14:08:17;1.98;;;1.40;;
60869;SDS011;46710;43.680;4.132;2022-08-23T14:10:43;1.35;;;1.25;;
60869;SDS011;46710;43.680;4.132;2022-08-23T14:13:10;1.98;;;1.33;;
60869;SDS011;46710;43.680;4.132;2022-08-23T14:15:36;2.12;;;1.48;;
60869;SDS011;46710;43.680;4.132;2022-08-23T14:18:03;2.10;;;1.50;;
60869;SDS011;46710;43.680;4.132;2022-08-23T14:20:29;2.03;;;1.20;;
60869;SDS011;46710;43.680;4.132;2022-08-23T14:22:55;1.40;;;1.30;;
60869;SDS011;46710;43.680;4.132;2022-08-23T14:25:21;1.52;;;1.37;;
60869;SDS011;46710;43.680;4.132;2022-08-23T14:27:47;1.98;;;1.50;;
60869;SDS011;46710;43.680;4.132;2022-08-23T14:30:22;3.60;;;1.10;;
60869;SDS011;46710;43.680;4.132;2022-08-23T14:32:48;10.55;;;9.43;;
60869;SDS011;46710;43.680;4.132;2022-08-23T14:35:14;3.67;;;3.03;;
60869;SDS011;46710;43.680;4.132;2022-08-23T14:37:41;2.30;;;2.10;;
60869;SDS011;46710;43.680;4.132;2022-08-23T14:40:07;3.10;;;1.77;;
60869;SDS011;46710;43.680;4.132;2022-08-23T14:42:33;1.33;;;1.20;;
60869;SDS011;46710;43.680;4.132;2022-08-23T14:44:59;2.22;;;1.30;;
60869;SDS011;46710;43.680;4.132;2022-08-23T14:47:26;1.25;;;1.15;;
60869;SDS011;46710;43.680;4.132;2022-08-23T14:49:52;1.73;;;1.30;;
60869;SDS011;46710;43.680;4.132;2022-08-23T14:52:18;3.22;;;1.17;;
60869;SDS011;46710;43.680;4.132;2022-08-23T14:54:44;2.42;;;1.40;;
60869;SDS011;46710;43.680;4.132;2022-08-23T14:57:10;3.60;;;2.90;;
60869;SDS011;46710;43.680;4.132;2022-08-23T14:59:37;4.75;;;3.62;;
60869;SDS011;46710;43.680;4.132;2022-08-23T15:02:03;3.25;;;2.95;;
60869;SDS011;46710;43.680;4.132;2022-08-23T15:04:31;2.80;;;2.25;;
60869;SDS011;46710;43.680;4.132;2022-08-23T15:06:57;2.05;;;1.73;;
60869;SDS011;46710;43.680;4.132;2022-08-23T15:09:23;3.58;;;2.00;;
60869;SDS011;46710;43.680;4.132;2022-08-23T15:11:49;2.37;;;1.80;;
60869;SDS011;46710;43.680;4.132;2022-08-23T15:14:15;1.42;;;1.30;;
60869;SDS011;46710;43.680;4.132;2022-08-23T15:16:41;2.17;;;1.35;;
60869;SDS011;46710;43.680;4.132;2022-08-23T15:19:07;1.75;;;1.20;;
60869;SDS011;46710;43.680;4.132;2022-08-23T15:21:34;1.92;;;1.37;;
60869;SDS011;46710;43.680;4.132;2022-08-23T15:24:00;2.75;;;1.25;;
60869;SDS011;46710;43.680;4.132;2022-08-23T15:26:27;2.37;;;1.45;;
60869;SDS011;46710;43.680;4.132;2022-08-23T15:28:55;1.42;;;1.25;;
60869;SDS011;46710;43.680;4.132;2022-08-23T15:31:21;1.52;;;1.08;;
60869;SDS011;46710;43.680;4.132;2022-08-23T15:33:47;1.67;;;1.55;;
60869;SDS011;46710;43.680;4.132;2022-08-23T15:36:14;1.60;;;1.50;;
60869;SDS011;46710;43.680;4.132;2022-08-23T15:38:41;4.12;;;1.90;;
60869;SDS011;46710;43.680;4.132;2022-08-23T15:41:07;2.15;;;1.55;;
60869;SDS011;46710;43.680;4.132;2022-08-23T15:43:33;1.35;;;1.25;;
60869;SDS011;46710;43.680;4.132;2022-08-23T15:46:04;2.03;;;1.73;;
60869;SDS011;46710;43.680;4.132;2022-08-23T15:48:33;3.80;;;1.70;;
60869;SDS011;46710;43.680;4.132;2022-08-23T15:51:00;1.77;;;1.42;;
60869;SDS011;46710;43.680;4.132;2022-08-23T15:53:26;1.70;;;1.40;;
60869;SDS011;46710;43.680;4.132;2022-08-23T15:55:52;3.67;;;1.60;;
60869;SDS011;46710;43.680;4.132;2022-08-23T15:58:25;3.35;;;1.42;;
60869;SDS011;46710;43.680;4.132;2022-08-23T16:00:51;1.55;;;1.45;;
60869;SDS011;46710;43.680;4.132;2022-08-23T16:03:18;1.42;;;1.33;;
60869;SDS011;46710;43.680;4.132;2022-08-23T16:05:45;4.32;;;1.42;;
60869;SDS011;46710;43.680;4.132;2022-08-23T16:08:15;2.05;;;1.55;;
60869;SDS011;46710;43.680;4.132;2022-08-23T16:10:43;1.98;;;1.30;;
60869;SDS011;46710;43.680;4.132;2022-08-23T16:13:09;1.95;;;1.27;;
60869;SDS011;46710;43.680;4.132;2022-08-23T16:15:36;1.70;;;1.60;;
60869;SDS011;46710;43.680;4.132;2022-08-23T16:18:02;1.40;;;1.25;;
60869;SDS011;46710;43.680;4.132;2022-08-23T16:20:28;1.33;;;1.20;;
60869;SDS011;46710;43.680;4.132;2022-08-23T16:22:55;1.70;;;1.33;;
60869;SDS011;46710;43.680;4.132;2022-08-23T16:25:21;2.03;;;1.60;;
60869;SDS011;46710;43.680;4.132;2022-08-23T16:27:47;1.40;;;1.30;;
60869;SDS011;46710;43.680;4.132;2022-08-23T16:30:14;1.90;;;1.42;;
60869;SDS011;46710;43.680;4.132;2022-08-23T16:32:40;2.00;;;1.40;;